createdAt,value
2022-12-01T00:01:28.685Z,11.75
2022-12-01T00:03:56.359Z,10.65
2022-12-01T00:06:24.054Z,10.52
2022-12-01T00:09:06.807Z,11.00
2022-12-01T00:11:37.423Z,11.93
2022-12-01T00:14:06.239Z,11.35
2022-12-01T00:16:35.007Z,10.88
2022-12-01T00:19:02.810Z,11.43
2022-12-01T00:21:30.591Z,10.73
2022-12-01T00:23:58.869Z,10.18
2022-12-01T00:26:27.930Z,10.82
2022-12-01T00:28:58.832Z,10.02
2022-12-01T00:31:27.335Z,10.80
2022-12-01T00:33:55.328Z,10.15
2022-12-01T00:36:23.385Z,9.63
2022-12-01T00:38:53.094Z,10.82
2022-12-01T00:41:20.939Z,10.00
2022-12-01T00:43:48.934Z,9.35
2022-12-01T00:46:17.930Z,9.68
2022-12-01T00:48:45.591Z,9.55
2022-12-01T00:51:13.194Z,9.18
2022-12-01T00:53:40.884Z,9.68
2022-12-01T00:56:08.682Z,9.80
2022-12-01T00:58:36.438Z,8.35
2022-12-01T01:01:04.361Z,8.32
2022-12-01T01:03:34.308Z,8.30
2022-12-01T01:06:06.537Z,8.07
2022-12-01T01:08:34.173Z,7.63
2022-12-01T01:11:02.695Z,8.30
2022-12-01T01:13:31.582Z,8.77
2022-12-01T01:16:00.708Z,8.02
2022-12-01T01:18:29.204Z,8.13
2022-12-01T01:20:59.828Z,8.23
2022-12-01T01:23:27.528Z,8.15
2022-12-01T01:25:55.197Z,7.63
2022-12-01T01:28:22.821Z,8.48
2022-12-01T01:30:50.449Z,7.47
2022-12-01T01:33:18.128Z,7.40
2022-12-01T01:35:45.718Z,7.18
2022-12-01T01:38:14.996Z,7.82
2022-12-01T01:40:44.825Z,7.65
2022-12-01T01:43:16.823Z,7.20
2022-12-01T01:45:45.290Z,7.27
2022-12-01T01:48:14.443Z,7.18
2022-12-01T01:50:42.670Z,7.22
2022-12-01T01:53:13.471Z,7.97
2022-12-01T01:55:42.513Z,7.18
2022-12-01T01:58:11.875Z,7.47
2022-12-01T02:00:41.848Z,7.78
2022-12-01T02:03:10.785Z,7.72
2022-12-01T02:05:39.257Z,7.47
2022-12-01T02:08:12.221Z,7.15
2022-12-01T02:13:24.827Z,7.18
2022-12-01T02:16:01.984Z,7.45
2022-12-01T02:18:38.803Z,7.90
2022-12-01T02:21:26.778Z,8.20
2022-12-01T02:24:37.811Z,7.25
2022-12-01T02:27:16.012Z,8.52
2022-12-01T02:30:09.517Z,8.32
2022-12-01T02:32:49.976Z,7.82
2022-12-01T02:35:24.853Z,8.23
2022-12-01T02:38:05.308Z,8.13
2022-12-01T02:40:41.626Z,7.88
2022-12-01T02:43:14.906Z,8.75
2022-12-01T02:45:47.016Z,7.63
2022-12-01T02:48:21.741Z,7.75
2022-12-01T02:50:49.954Z,7.60
2022-12-01T02:53:20.477Z,8.43
2022-12-01T02:55:50.092Z,7.82
2022-12-01T02:58:17.932Z,9.38
2022-12-01T03:00:57.564Z,8.35
2022-12-01T03:03:41.337Z,8.48
2022-12-01T03:06:15.438Z,8.60
2022-12-01T03:08:51.434Z,8.85
2022-12-01T03:11:28.954Z,9.30
2022-12-01T03:14:09.910Z,8.73
2022-12-01T03:16:48.327Z,9.70
2022-12-01T03:19:23.090Z,8.88
2022-12-01T03:21:56.024Z,8.88
2022-12-01T03:26:57.818Z,8.82
2022-12-01T03:29:29.046Z,8.70
2022-12-01T03:32:00.261Z,9.25
2022-12-01T03:34:37.910Z,9.35
2022-12-01T03:37:10.354Z,8.95
2022-12-01T03:39:40.255Z,10.20
2022-12-01T03:42:13.639Z,8.70
2022-12-01T03:44:47.647Z,9.15
2022-12-01T03:47:18.403Z,9.02
2022-12-01T03:49:50.900Z,9.32
2022-12-01T03:52:28.560Z,9.25
2022-12-01T03:55:03.335Z,9.57
2022-12-01T03:57:34.723Z,8.82
2022-12-01T04:00:02.970Z,9.98
2022-12-01T04:02:30.870Z,10.07
2022-12-01T04:04:59.896Z,9.63
2022-12-01T04:07:27.648Z,10.05
2022-12-01T04:09:55.323Z,10.13
2022-12-01T04:12:30.892Z,9.45
2022-12-01T04:14:59.298Z,9.40
2022-12-01T04:17:27.569Z,10.23
2022-12-01T04:19:55.605Z,9.80
2022-12-01T04:22:25.511Z,10.70
2022-12-01T04:24:53.658Z,10.68
2022-12-01T04:27:21.998Z,10.82
2022-12-01T04:29:49.868Z,10.88
2022-12-01T04:32:17.916Z,9.75
2022-12-01T04:34:45.643Z,10.45
2022-12-01T04:37:13.417Z,10.32
2022-12-01T04:39:43.081Z,10.52
2022-12-01T04:42:11.491Z,10.88
2022-12-01T04:44:39.214Z,11.57
2022-12-01T04:47:07.493Z,11.57
2022-12-01T04:49:37.283Z,10.40
2022-12-01T04:52:05.314Z,11.02
2022-12-01T04:54:32.987Z,10.55
2022-12-01T04:57:02.009Z,11.05
2022-12-01T04:59:29.609Z,12.57
2022-12-01T05:01:57.349Z,11.32
2022-12-01T05:04:25.211Z,11.23
2022-12-01T05:06:55.551Z,10.50
2022-12-01T05:09:23.256Z,11.75
2022-12-01T05:11:52.114Z,10.10
2022-12-01T05:14:21.128Z,10.55
2022-12-01T05:16:48.820Z,11.00
2022-12-01T05:19:45.350Z,10.40
2022-12-01T05:22:12.936Z,11.57
2022-12-01T05:24:40.587Z,11.63
2022-12-01T05:27:08.253Z,12.45
2022-12-01T05:29:37.288Z,12.18
2022-12-01T05:32:05.326Z,11.52
2022-12-01T05:34:33.047Z,11.65
2022-12-01T05:37:00.652Z,11.32
2022-12-01T05:39:28.252Z,11.63
2022-12-01T05:41:55.863Z,12.23
2022-12-01T05:44:23.451Z,11.18
2022-12-01T05:46:52.855Z,11.05
2022-12-01T05:49:20.750Z,11.80
2022-12-01T05:51:48.349Z,12.18
2022-12-01T05:54:16.271Z,11.73
2022-12-01T05:56:44.255Z,11.27
2022-12-01T05:59:11.962Z,11.75
2022-12-01T06:01:39.577Z,11.15
2022-12-01T06:04:08.747Z,12.15
2022-12-01T06:06:36.436Z,11.63
2022-12-01T06:09:04.130Z,13.68
2022-12-01T06:11:31.707Z,11.30
2022-12-01T06:13:59.275Z,11.60
2022-12-01T06:16:26.970Z,11.50
2022-12-01T06:18:54.620Z,12.15
2022-12-01T06:21:23.620Z,12.38
2022-12-01T06:23:51.253Z,12.07
2022-12-01T06:26:18.948Z,12.20
2022-12-01T06:28:46.796Z,11.57
2022-12-01T06:31:17.812Z,13.52
2022-12-01T06:33:45.461Z,12.80
2022-12-01T06:36:13.038Z,13.20
2022-12-01T06:38:42.071Z,12.68
2022-12-01T06:41:09.794Z,13.15
2022-12-01T06:43:38.569Z,13.30
2022-12-01T06:46:06.721Z,13.25
2022-12-01T06:48:34.411Z,12.80
2022-12-01T06:51:02.774Z,13.02
2022-12-01T06:53:30.662Z,13.43
2022-12-01T06:56:02.309Z,13.40
2022-12-01T06:58:30.170Z,12.35
2022-12-01T07:00:58.931Z,12.32
2022-12-01T07:03:26.865Z,14.00
2022-12-01T07:05:58.810Z,13.43
2022-12-01T07:08:26.709Z,13.20
2022-12-01T07:10:58.946Z,13.15
2022-12-01T07:13:33.091Z,13.20
2022-12-01T07:16:01.284Z,13.07
2022-12-01T07:18:28.925Z,12.18
2022-12-01T07:21:00.321Z,14.27
2022-12-01T07:23:28.016Z,12.88
2022-12-01T07:26:00.093Z,13.55
2022-12-01T07:28:29.934Z,12.93
2022-12-01T07:31:03.225Z,13.10
2022-12-01T07:33:31.390Z,13.68
2022-12-01T07:36:00.889Z,13.07
2022-12-01T07:38:29.814Z,12.27
2022-12-01T07:41:02.811Z,12.38
2022-12-01T07:43:32.702Z,13.63
2022-12-01T07:46:08.894Z,14.02
2022-12-01T07:48:37.233Z,12.60
2022-12-01T07:51:05.641Z,11.70
2022-12-01T07:53:33.548Z,12.88
2022-12-01T07:56:05.716Z,12.13
2022-12-01T07:58:38.045Z,13.15
2022-12-01T08:01:10.079Z,13.82
2022-12-01T08:03:38.113Z,12.23
2022-12-01T08:06:06.931Z,12.80
2022-12-01T08:08:35.702Z,12.13
2022-12-01T08:11:05.164Z,12.07
2022-12-01T08:13:33.420Z,12.52
2022-12-01T08:16:04.355Z,11.18
2022-12-01T08:18:32.113Z,12.38
2022-12-01T08:20:59.716Z,12.18
2022-12-01T08:23:27.390Z,11.20
2022-12-01T08:25:55.207Z,11.70
2022-12-01T08:28:22.895Z,10.40
2022-12-01T08:30:50.542Z,12.80
2022-12-01T08:33:19.864Z,11.68
2022-12-01T08:35:47.497Z,11.90
2022-12-01T08:38:15.769Z,11.57
2022-12-01T08:40:44.194Z,11.68
2022-12-01T08:43:23.082Z,11.13
2022-12-01T08:46:00.278Z,10.90
2022-12-01T08:48:30.154Z,11.90
2022-12-01T08:51:05.911Z,11.63
2022-12-01T08:53:33.828Z,12.63
2022-12-01T08:56:02.735Z,11.70
2022-12-01T08:58:30.541Z,12.63
2022-12-01T09:01:05.374Z,11.75
2022-12-01T09:03:38.011Z,12.93
2022-12-01T09:06:07.491Z,12.43
2022-12-01T09:08:35.855Z,12.45
2022-12-01T09:11:05.788Z,12.15
2022-12-01T09:13:34.205Z,12.32
2022-12-01T09:16:04.618Z,11.90
2022-12-01T09:18:34.160Z,11.27
2022-12-01T09:21:02.227Z,11.82
2022-12-01T09:23:29.887Z,12.35
2022-12-01T09:26:01.356Z,11.40
2022-12-01T09:28:28.968Z,10.73
2022-12-01T09:30:56.775Z,11.57
2022-12-01T09:33:24.438Z,11.98
2022-12-01T09:35:53.513Z,11.70
2022-12-01T09:38:21.133Z,12.05
2022-12-01T09:40:48.979Z,10.88
2022-12-01T09:43:20.551Z,11.43
2022-12-01T09:45:51.974Z,10.88
2022-12-01T09:48:28.462Z,10.70
2022-12-01T09:50:57.617Z,11.18
2022-12-01T09:53:28.853Z,10.90
2022-12-01T09:56:04.876Z,11.13
2022-12-01T09:58:35.504Z,11.50
2022-12-01T10:01:03.261Z,10.50
2022-12-01T10:03:35.819Z,10.45
2022-12-01T10:06:30.493Z,11.15
2022-12-01T10:09:15.922Z,10.25
2022-12-01T10:11:45.642Z,9.73
2022-12-01T10:14:20.010Z,10.80
2022-12-01T10:16:59.967Z,10.00
2022-12-01T10:19:34.805Z,10.70
2022-12-01T10:22:20.662Z,10.18
2022-12-01T10:25:08.605Z,10.60
2022-12-01T10:27:48.973Z,10.10
2022-12-01T10:30:18.678Z,10.30
2022-12-01T10:32:53.095Z,10.27
2022-12-01T10:35:23.450Z,10.73
2022-12-01T10:37:57.382Z,10.32
2022-12-01T10:40:26.971Z,11.35
2022-12-01T10:42:55.321Z,11.23
2022-12-01T10:45:24.962Z,11.20
2022-12-01T10:48:10.865Z,10.35
2022-12-01T10:50:38.841Z,10.57
2022-12-01T10:53:08.052Z,11.13
2022-12-01T10:55:43.418Z,10.18
2022-12-01T10:58:17.196Z,9.52
2022-12-01T11:01:00.110Z,11.30
2022-12-01T11:03:30.480Z,10.70
2022-12-01T11:05:59.829Z,9.80
2022-12-01T11:08:39.572Z,9.70
2022-12-01T11:11:22.325Z,10.13
2022-12-01T11:13:51.917Z,11.05
2022-12-01T11:16:36.523Z,9.93
2022-12-01T11:19:10.781Z,10.43
2022-12-01T11:21:47.113Z,10.43
2022-12-01T11:24:29.395Z,9.98
2022-12-01T11:26:58.769Z,11.13
2022-12-01T11:29:35.439Z,10.68
2022-12-01T11:32:17.307Z,10.23
2022-12-01T11:34:51.055Z,10.45
2022-12-01T11:37:21.482Z,10.85
2022-12-01T11:39:52.367Z,10.20
2022-12-01T11:42:25.725Z,9.82
2022-12-01T11:44:55.323Z,9.80
2022-12-01T11:47:25.527Z,9.85
2022-12-01T11:49:56.482Z,10.48
2022-12-01T11:52:28.259Z,10.27
2022-12-01T11:55:02.337Z,10.35
2022-12-01T11:57:34.809Z,10.80
2022-12-01T12:00:03.879Z,10.65
2022-12-01T12:02:40.024Z,11.00
2022-12-01T12:05:31.606Z,10.82
2022-12-01T12:08:08.061Z,10.80
2022-12-01T12:10:45.813Z,9.90
2022-12-01T12:13:37.677Z,10.50
2022-12-01T12:16:33.874Z,11.18
2022-12-01T12:19:22.518Z,10.88
2022-12-01T12:22:22.187Z,11.23
2022-12-01T12:25:03.046Z,10.15
2022-12-01T12:27:44.885Z,10.98
2022-12-01T12:30:22.591Z,11.95
2022-12-01T12:33:10.823Z,12.00
2022-12-01T12:35:45.629Z,11.73
2022-12-01T12:38:38.376Z,10.85
2022-12-01T12:41:19.783Z,11.07
2022-12-01T12:43:58.623Z,11.20
2022-12-01T12:46:35.470Z,11.43
2022-12-01T12:49:22.234Z,10.57
2022-12-01T12:51:53.858Z,10.52
2022-12-01T12:54:26.765Z,11.20
2022-12-01T12:57:04.216Z,11.70
2022-12-01T12:59:43.599Z,10.52
2022-12-01T13:02:17.003Z,10.52
2022-12-01T13:05:08.218Z,11.38
2022-12-01T13:07:41.102Z,10.38
2022-12-01T13:12:46.602Z,11.30
2022-12-01T13:15:19.042Z,10.65
2022-12-01T13:17:51.075Z,12.63
2022-12-01T13:20:21.733Z,12.70
2022-12-01T13:22:49.974Z,11.50
2022-12-01T13:25:21.541Z,10.35
2022-12-01T13:27:51.174Z,11.50
2022-12-01T13:30:24.704Z,10.27
2022-12-01T13:33:27.097Z,10.77
2022-12-01T13:36:22.747Z,10.55
2022-12-01T13:38:44.449Z,11.18
2022-12-01T13:41:17.775Z,11.48
2022-12-01T13:43:55.515Z,9.88
2022-12-01T13:46:52.803Z,9.68
2022-12-01T13:49:37.105Z,10.73
2022-12-01T13:52:29.127Z,9.90
2022-12-01T13:55:29.397Z,10.45
2022-12-01T13:58:22.954Z,10.32
2022-12-01T14:00:51.359Z,9.90
2022-12-01T14:03:41.797Z,10.43
2022-12-01T14:06:26.682Z,9.95
2022-12-01T14:08:58.532Z,10.88
2022-12-01T14:11:28.016Z,10.23
2022-12-01T14:13:58.729Z,10.25
2022-12-01T14:16:27.193Z,10.38
2022-12-01T14:18:58.581Z,9.13
2022-12-01T14:21:44.894Z,10.43
2022-12-01T14:24:23.311Z,9.93
2022-12-01T14:26:52.377Z,10.02
2022-12-01T14:29:34.268Z,10.80
2022-12-01T14:32:37.544Z,10.52
2022-12-01T14:35:13.757Z,9.93
2022-12-01T14:37:47.031Z,10.10
2022-12-01T14:40:21.186Z,10.73
2022-12-01T14:43:09.432Z,10.73
2022-12-01T14:45:42.313Z,11.38
2022-12-01T14:50:46.777Z,10.13
2022-12-01T14:53:25.831Z,10.75
2022-12-01T14:55:57.432Z,11.27
2022-12-01T14:58:28.031Z,10.95
2022-12-01T15:01:00.377Z,10.82
2022-12-01T15:03:32.928Z,9.82
2022-12-01T15:06:04.877Z,10.73
2022-12-01T15:08:49.350Z,10.53
2022-12-01T15:11:25.489Z,11.93
2022-12-01T15:13:55.038Z,10.32
2022-12-01T15:16:25.434Z,10.18
2022-12-01T15:18:53.913Z,10.30
2022-12-01T15:21:25.276Z,10.38
2022-12-01T15:23:54.606Z,10.95
2022-12-01T15:26:24.952Z,10.88
2022-12-01T15:29:05.887Z,11.30
2022-12-01T15:31:35.604Z,13.75
2022-12-01T15:34:03.566Z,14.55
2022-12-01T15:36:32.761Z,12.63
2022-12-01T15:39:14.835Z,17.77
2022-12-01T15:41:56.326Z,12.70
2022-12-01T15:44:29.285Z,11.52
2022-12-01T15:46:59.449Z,11.90
2022-12-01T15:49:29.917Z,11.15
2022-12-01T15:52:08.717Z,12.30
2022-12-01T15:54:37.906Z,11.13
2022-12-01T15:57:06.821Z,11.45
2022-12-01T15:59:38.794Z,11.13
2022-12-01T16:02:28.961Z,11.20
2022-12-01T16:05:06.769Z,11.98
2022-12-01T16:08:12.198Z,10.95
2022-12-01T16:10:32.818Z,10.50
2022-12-01T16:13:40.042Z,9.88
2022-12-01T16:16:35.428Z,10.95
2022-12-01T16:19:08.965Z,10.70
2022-12-01T16:21:45.856Z,11.95
2022-12-01T16:24:18.051Z,10.90
2022-12-01T16:26:49.890Z,10.75
2022-12-01T16:29:23.905Z,10.77
2022-12-01T16:32:18.567Z,10.18
2022-12-01T16:34:47.731Z,11.27
2022-12-01T16:37:15.962Z,11.05
2022-12-01T16:39:44.925Z,11.18
2022-12-01T16:42:14.521Z,10.82
2022-12-01T16:44:42.703Z,10.63
2022-12-01T16:47:15.792Z,10.38
2022-12-01T16:49:43.561Z,11.93
2022-12-01T16:55:00.343Z,10.70
2022-12-01T16:57:28.031Z,10.80
2022-12-01T16:59:56.793Z,10.75
2022-12-01T17:02:24.548Z,12.23
2022-12-01T17:04:52.478Z,10.48
2022-12-01T17:07:20.416Z,10.75
2022-12-01T17:09:48.209Z,10.52
2022-12-01T17:12:17.241Z,11.15
2022-12-01T17:14:44.866Z,11.60
2022-12-01T17:17:12.659Z,10.32
2022-12-01T17:19:40.371Z,11.27
2022-12-01T17:22:08.527Z,10.63
2022-12-01T17:24:36.506Z,10.75
2022-12-01T17:27:04.161Z,10.50
2022-12-01T17:29:33.352Z,12.00
2022-12-01T17:32:01.009Z,11.43
2022-12-01T17:34:28.725Z,10.75
2022-12-01T17:36:56.316Z,10.90
2022-12-01T17:39:24.003Z,11.55
2022-12-01T17:41:51.716Z,11.25
2022-12-01T17:44:19.396Z,12.18
2022-12-01T17:46:48.504Z,11.45
2022-12-01T17:49:16.197Z,11.90
2022-12-01T17:51:44.214Z,12.00
2022-12-01T17:54:11.996Z,11.65
2022-12-01T17:56:41.410Z,12.20
2022-12-01T17:59:09.225Z,11.98
2022-12-01T18:01:43.150Z,11.80
2022-12-01T18:04:12.670Z,15.98
2022-12-01T18:06:40.853Z,19.08
2022-12-01T18:09:08.758Z,19.83
2022-12-01T18:11:38.641Z,14.10
2022-12-01T18:14:06.301Z,12.93
2022-12-01T18:16:34.113Z,12.50
2022-12-01T18:19:02.424Z,12.48
2022-12-01T18:21:31.630Z,12.13
2022-12-01T18:24:00.825Z,13.60
2022-12-01T18:26:29.223Z,13.57
2022-12-01T18:28:58.684Z,13.32
2022-12-01T18:31:27.524Z,13.68
2022-12-01T18:33:55.293Z,12.18
2022-12-01T18:36:24.968Z,13.55
2022-12-01T18:38:54.476Z,12.93
2022-12-01T18:41:22.307Z,11.52
2022-12-01T18:43:50.057Z,12.10
2022-12-01T18:46:19.447Z,11.13
2022-12-01T18:48:48.763Z,12.25
2022-12-01T18:51:20.000Z,11.80
2022-12-01T18:53:48.406Z,12.00
2022-12-01T18:56:17.430Z,13.05
2022-12-01T18:58:47.831Z,12.65
2022-12-01T19:01:20.863Z,12.63
2022-12-01T19:03:48.715Z,11.93
2022-12-01T19:06:16.417Z,11.68
2022-12-01T19:08:44.113Z,12.15
2022-12-01T19:11:11.902Z,12.70
2022-12-01T19:13:41.625Z,12.80
2022-12-01T19:16:10.627Z,12.65
2022-12-01T19:18:39.246Z,12.45
2022-12-01T19:21:09.219Z,12.73
2022-12-01T19:23:37.116Z,13.40
2022-12-01T19:26:06.019Z,12.13
2022-12-01T19:28:33.619Z,13.48
2022-12-01T19:31:07.245Z,11.48
2022-12-01T19:33:35.403Z,12.85
2022-12-01T19:36:05.788Z,12.68
2022-12-01T19:38:33.430Z,12.32
2022-12-01T19:41:01.217Z,11.80
2022-12-01T19:43:30.912Z,13.68
2022-12-01T19:45:58.564Z,13.65
2022-12-01T19:48:27.621Z,14.45
2022-12-01T19:50:55.300Z,15.35
2022-12-01T19:53:22.937Z,14.43
2022-12-01T19:55:50.534Z,14.75
2022-12-01T19:58:18.374Z,14.70
2022-12-01T20:00:46.683Z,13.05
2022-12-01T20:03:14.401Z,13.18
2022-12-01T20:05:43.409Z,13.98
2022-12-01T20:08:13.766Z,13.07
2022-12-01T20:10:47.627Z,14.93
2022-12-01T20:13:15.363Z,13.30
2022-12-01T20:15:43.007Z,14.35
2022-12-01T20:18:14.526Z,14.23
2022-12-01T20:20:43.565Z,13.52
2022-12-01T20:23:11.635Z,12.77
2022-12-01T20:25:39.272Z,13.43
2022-12-01T20:28:06.987Z,13.63
2022-12-01T20:30:34.659Z,14.40
2022-12-01T20:33:02.264Z,13.95
2022-12-01T20:35:29.904Z,12.98
2022-12-01T20:37:58.881Z,13.73
2022-12-01T20:40:26.542Z,13.52
2022-12-01T20:42:54.157Z,13.93
2022-12-01T20:45:21.914Z,13.50
2022-12-01T20:47:49.486Z,13.32
2022-12-01T20:50:18.440Z,13.80
2022-12-01T20:52:46.097Z,14.65
2022-12-01T20:55:15.640Z,16.38
2022-12-01T20:57:45.733Z,15.45
2022-12-01T21:00:14.732Z,14.38
2022-12-01T21:02:43.580Z,15.18
2022-12-01T21:05:11.345Z,16.58
2022-12-01T21:07:39.404Z,14.95
2022-12-01T21:10:08.193Z,15.40
2022-12-01T21:12:58.757Z,14.45
2022-12-01T21:15:31.193Z,17.35
2022-12-01T21:18:01.673Z,15.63
2022-12-01T21:20:31.557Z,14.68
2022-12-01T21:23:03.381Z,15.27
2022-12-01T21:25:31.247Z,16.48
2022-12-01T21:28:04.757Z,16.85
2022-12-01T21:30:32.740Z,16.38
2022-12-01T21:33:19.904Z,18.50
2022-12-01T21:35:54.478Z,15.82
2022-12-01T21:38:22.380Z,16.38
2022-12-01T21:40:50.311Z,16.27
2022-12-01T21:43:21.865Z,18.35
2022-12-01T21:45:53.272Z,18.25
2022-12-01T21:48:23.802Z,25.00
2022-12-01T21:50:58.154Z,34.55
2022-12-01T21:53:37.551Z,30.70
2022-12-01T21:56:05.388Z,41.83
2022-12-01T21:58:37.327Z,30.45
2022-12-01T22:01:17.886Z,19.02
2022-12-01T22:03:47.103Z,19.23
2022-12-01T22:06:29.884Z,20.20
2022-12-01T22:09:01.347Z,20.98
2022-12-01T22:11:30.423Z,18.70
2022-12-01T22:14:12.119Z,17.65
2022-12-01T22:16:43.723Z,16.45
2022-12-01T22:19:25.779Z,16.60
2022-12-01T22:22:00.654Z,16.73
2022-12-01T22:24:35.923Z,16.08
2022-12-01T22:27:15.857Z,16.38
2022-12-01T22:29:46.578Z,16.73
2022-12-01T22:32:37.238Z,17.50
2022-12-01T22:35:36.129Z,17.30
2022-12-01T22:38:21.336Z,17.90
2022-12-01T22:40:57.660Z,16.90
2022-12-01T22:43:32.528Z,17.17
2022-12-01T22:46:16.214Z,16.88
2022-12-01T22:48:46.555Z,17.58
2022-12-01T22:51:30.165Z,17.33
2022-12-01T22:54:01.209Z,16.40
2022-12-01T22:56:33.004Z,16.00
2022-12-01T22:59:00.702Z,16.83
2022-12-01T23:01:37.636Z,15.95
2022-12-01T23:04:16.455Z,17.42
2022-12-01T23:06:52.964Z,16.55
2022-12-01T23:09:21.450Z,17.60
2022-12-01T23:11:53.278Z,16.90
2022-12-01T23:14:23.089Z,16.35
2022-12-01T23:16:54.130Z,16.25
2022-12-01T23:19:24.812Z,17.90
2022-12-01T23:21:53.483Z,16.90
2022-12-01T23:24:21.285Z,15.85
2022-12-01T23:26:49.167Z,16.52
2022-12-01T23:29:18.982Z,17.55
2022-12-01T23:31:48.692Z,16.80
2022-12-01T23:34:19.035Z,16.67
2022-12-01T23:36:49.206Z,16.45
2022-12-01T23:39:20.593Z,16.52
2022-12-01T23:41:51.026Z,16.17
2022-12-01T23:44:22.296Z,15.75
2022-12-01T23:46:51.854Z,16.85
2022-12-01T23:49:25.734Z,17.30
2022-12-01T23:51:55.870Z,17.45
2022-12-01T23:54:27.553Z,18.30
2022-12-01T23:56:57.589Z,16.92
2022-12-01T23:59:28.864Z,17.52
